createdAt,value
2016-09-18T00:00:13.963Z,19.05
2016-09-18T00:01:13.702Z,19.11
2016-09-18T00:02:13.277Z,19.17
2016-09-18T00:03:13.431Z,19.1
2016-09-18T00:04:14.126Z,19.06
2016-09-18T00:05:13.608Z,19.01
2016-09-18T00:06:13.498Z,19.01
2016-09-18T00:07:13.445Z,19.13
2016-09-18T00:08:13.594Z,19.1
2016-09-18T00:09:13.355Z,19.01
2016-09-18T00:10:12.992Z,19.17
2016-09-18T00:11:13.442Z,19.13
2016-09-18T00:12:12.899Z,19.05
2016-09-18T00:13:13.805Z,19.02
2016-09-18T00:14:13.547Z,19.02
2016-09-18T00:15:13.476Z,19.06
2016-09-18T00:16:13.216Z,19.11
2016-09-18T00:17:12.974Z,19.14
2016-09-18T00:18:12.619Z,19.21
2016-09-18T00:19:12.633Z,19.17
2016-09-18T00:20:12.521Z,19.17
2016-09-18T00:21:12.841Z,19.15
2016-09-18T00:22:12.638Z,19.13
2016-09-18T00:23:12.401Z,19.2
2016-09-18T00:24:12.646Z,19.13
2016-09-18T00:25:12.625Z,19.15
2016-09-18T00:26:12.551Z,19.14
2016-09-18T00:27:12.511Z,19.14
2016-09-18T00:28:12.464Z,19.2
2016-09-18T00:29:12.122Z,19.17
2016-09-18T00:30:12.388Z,19.13
2016-09-18T00:31:12.015Z,19.1
2016-09-18T00:32:12.289Z,19.08
2016-09-18T00:33:11.934Z,19.06
2016-09-18T00:34:12.635Z,19.05
2016-09-18T00:35:12.270Z,19.11
2016-09-18T00:36:12.080Z,19.15
2016-09-18T00:37:11.483Z,19.14
2016-09-18T00:38:11.701Z,19.05
2016-09-18T00:39:11.971Z,19.1
2016-09-18T00:40:11.600Z,19.01
2016-09-18T00:41:11.868Z,18.97
2016-09-18T00:42:11.503Z,18.94
2016-09-18T00:43:11.773Z,18.95
2016-09-18T00:44:11.732Z,19.02
2016-09-18T00:45:11.674Z,18.99
2016-09-18T00:46:11.350Z,19.02
2016-09-18T00:47:11.278Z,18.97
2016-09-18T00:48:11.531Z,19.05
2016-09-18T00:49:11.678Z,19.01
2016-09-18T00:50:11.445Z,19.11
2016-09-18T00:51:11.139Z,19.17
2016-09-18T00:52:11.606Z,19.11
2016-09-18T00:53:11.527Z,19.14
2016-09-18T00:54:10.945Z,19.18
2016-09-18T00:55:11.241Z,19.21
2016-09-18T00:56:11.246Z,19.17
2016-09-18T00:57:11.315Z,19.18
2016-09-18T00:58:11.097Z,19.2
2016-09-18T00:59:11.037Z,19.13
2016-09-18T01:00:10.888Z,19.17
2016-09-18T01:01:10.967Z,19.17
2016-09-18T01:02:10.791Z,19.08
2016-09-18T01:03:10.553Z,19.11
2016-09-18T01:04:11.040Z,19.05
2016-09-18T01:05:10.460Z,19.1
2016-09-18T01:06:10.745Z,18.97
2016-09-18T01:07:10.677Z,19.01
2016-09-18T01:08:10.642Z,18.92
2016-09-18T01:09:10.788Z,18.92
2016-09-18T01:10:10.204Z,18.97
2016-09-18T01:11:10.495Z,18.92
2016-09-18T01:12:10.452Z,18.99
2016-09-18T01:13:10.076Z,18.95
2016-09-18T01:14:10.029Z,18.95
2016-09-18T01:15:09.996Z,18.94
2016-09-18T01:16:10.247Z,19.08
2016-09-18T01:17:10.256Z,18.9
2016-09-18T01:18:10.158Z,18.92
2016-09-18T01:19:10.114Z,18.95
2016-09-18T01:20:10.068Z,18.92
2016-09-18T01:21:10.026Z,18.94
2016-09-18T01:22:09.983Z,18.97
2016-09-18T01:23:09.925Z,18.83
2016-09-18T01:24:09.909Z,18.91
2016-09-18T01:25:09.839Z,18.91
2016-09-18T01:26:09.788Z,18.95
2016-09-18T01:27:09.738Z,18.92
2016-09-18T01:28:09.698Z,18.91
2016-09-18T01:29:09.343Z,18.84
2016-09-18T01:30:09.285Z,18.8
2016-09-18T01:31:09.585Z,18.94
2016-09-18T01:32:09.520Z,18.94
2016-09-18T01:33:09.174Z,18.95
2016-09-18T01:34:08.821Z,18.87
2016-09-18T01:35:09.096Z,18.77
2016-09-18T01:36:09.006Z,18.92
2016-09-18T01:37:08.675Z,18.91
2016-09-18T01:38:08.928Z,18.8
2016-09-18T01:39:09.193Z,18.77
2016-09-18T01:40:09.143Z,18.84
2016-09-18T01:41:08.495Z,18.8
2016-09-18T01:42:08.462Z,18.79
2016-09-18T01:43:08.901Z,18.83
2016-09-18T01:44:08.640Z,18.94
2016-09-18T01:45:08.920Z,18.99
2016-09-18T01:46:08.857Z,18.95
2016-09-18T01:47:08.818Z,19.06
2016-09-18T01:48:08.780Z,19.02
2016-09-18T01:49:08.745Z,19.06
2016-09-18T01:50:08.691Z,19.13
2016-09-18T01:51:08.633Z,19.2
2016-09-18T01:52:08.481Z,19.14
2016-09-18T01:53:08.567Z,19.02
2016-09-18T01:54:08.505Z,19.02
2016-09-18T01:55:08.455Z,19.06
2016-09-18T01:56:08.408Z,19.02
2016-09-18T01:57:08.046Z,18.95
2016-09-18T01:58:08.097Z,18.94
2016-09-18T01:59:07.954Z,18.92
2016-09-18T02:00:08.223Z,18.77
2016-09-18T02:01:08.163Z,18.77
2016-09-18T02:02:08.135Z,18.74
2016-09-18T02:03:08.270Z,18.82
2016-09-18T02:04:07.758Z,18.77
2016-09-18T02:05:07.992Z,18.83
2016-09-18T02:06:07.936Z,18.8
2016-09-18T02:07:07.584Z,18.82
2016-09-18T02:08:07.854Z,18.77
2016-09-18T02:09:07.559Z,18.76
2016-09-18T02:10:07.956Z,18.67
2016-09-18T02:11:07.828Z,18.68
2016-09-18T02:12:07.669Z,18.68
2016-09-18T02:13:07.805Z,18.68
2016-09-18T02:14:07.577Z,18.64
2016-09-18T02:15:07.515Z,18.58
2016-09-18T02:16:07.162Z,18.61
2016-09-18T02:17:07.319Z,18.58
2016-09-18T02:18:07.288Z,18.55
2016-09-18T02:19:07.059Z,18.55
2016-09-18T02:20:07.489Z,18.62
2016-09-18T02:21:06.938Z,18.64
2016-09-18T02:22:06.899Z,18.67
2016-09-18T02:23:07.195Z,18.67
2016-09-18T02:24:06.795Z,18.62
2016-09-18T02:25:06.966Z,18.58
2016-09-18T02:26:07.209Z,18.65
2016-09-18T02:27:06.654Z,18.67
2016-09-18T02:28:06.982Z,18.59
2016-09-18T02:29:07.077Z,18.57
2016-09-18T02:30:06.826Z,18.54
2016-09-18T02:31:06.787Z,18.47
2016-09-18T02:32:06.621Z,18.4
2016-09-18T02:33:06.397Z,18.46
2016-09-18T02:34:06.627Z,18.36
2016-09-18T02:35:06.655Z,18.36
2016-09-18T02:36:06.754Z,18.33
2016-09-18T02:37:06.688Z,18.27
2016-09-18T02:38:06.443Z,18.31
2016-09-18T02:39:06.102Z,18.43
2016-09-18T02:40:06.045Z,18.43
2016-09-18T02:41:06.018Z,18.34
2016-09-18T02:42:06.156Z,18.42
2016-09-18T02:43:06.425Z,18.33
2016-09-18T02:44:05.895Z,18.28
2016-09-18T02:45:05.855Z,18.29
2016-09-18T02:46:06.279Z,18.31
2016-09-18T02:47:06.029Z,18.37
2016-09-18T02:48:06.095Z,18.37
2016-09-18T02:49:06.332Z,18.29
2016-09-18T02:50:06.090Z,18.21
2016-09-18T02:51:06.051Z,18.34
2016-09-18T02:52:05.487Z,18.24
2016-09-18T02:53:05.748Z,18.34
2016-09-18T02:54:05.393Z,18.28
2016-09-18T02:55:05.660Z,18.28
2016-09-18T02:56:05.613Z,18.36
2016-09-18T02:57:05.560Z,18.37
2016-09-18T02:58:05.572Z,18.34
2016-09-18T02:59:05.466Z,18.28
2016-09-18T03:00:05.321Z,18.29
2016-09-18T03:01:05.065Z,18.25
2016-09-18T03:02:05.228Z,18.22
2016-09-18T03:03:05.286Z,18.21
2016-09-18T03:04:05.443Z,18.18
2016-09-18T03:05:05.458Z,18.19
2016-09-18T03:06:05.251Z,18.25
2016-09-18T03:07:04.994Z,18.19
2016-09-18T03:08:05.047Z,18.27
2016-09-18T03:09:05.003Z,18.19
2016-09-18T03:10:05.196Z,18.24
2016-09-18T03:11:04.592Z,18.18
2016-09-18T03:12:04.555Z,18.25
2016-09-18T03:13:04.511Z,18.15
2016-09-18T03:14:04.667Z,18.15
2016-09-18T03:15:04.725Z,18.12
2016-09-18T03:16:04.670Z,18.31
2016-09-18T03:17:04.316Z,18.1
2016-09-18T03:18:04.743Z,18.24
2016-09-18T03:19:04.227Z,18.12
2016-09-18T03:20:04.478Z,18.18
2016-09-18T03:21:04.131Z,18.19
2016-09-18T03:22:03.779Z,18.09
2016-09-18T03:23:03.733Z,18.19
2016-09-18T03:24:03.983Z,18.27
2016-09-18T03:25:04.265Z,18.22
2016-09-18T03:26:04.200Z,18.15
2016-09-18T03:27:04.168Z,18.24
2016-09-18T03:28:03.510Z,18.21
2016-09-18T03:29:04.064Z,18.19
2016-09-18T03:30:03.718Z,18.18
2016-09-18T03:31:03.654Z,18.19
2016-09-18T03:32:03.939Z,18.19
2016-09-18T03:33:03.587Z,18.21
2016-09-18T03:34:03.534Z,18.1
2016-09-18T03:35:04.192Z,18.03
2016-09-18T03:36:03.743Z,18.1
2016-09-18T03:37:03.914Z,18.07
2016-09-18T03:38:03.860Z,18.12
2016-09-18T03:39:03.825Z,18.09
2016-09-18T03:40:03.246Z,18.1
2016-09-18T03:41:03.779Z,18.13
2016-09-18T03:42:03.501Z,18.07
2016-09-18T03:43:03.423Z,18.07
2016-09-18T03:44:03.355Z,18.03
2016-09-18T03:45:03.729Z,18.13
2016-09-18T03:46:03.265Z,18.15
2016-09-18T03:47:03.222Z,18.03
2016-09-18T03:48:02.877Z,18.07
2016-09-18T03:49:02.828Z,17.99
2016-09-18T03:50:02.967Z,17.99
2016-09-18T03:51:03.024Z,17.99
2016-09-18T03:52:03.048Z,18.02
2016-09-18T03:53:02.951Z,17.88
2016-09-18T03:54:02.587Z,18.03
2016-09-18T03:55:02.783Z,17.89
2016-09-18T03:56:02.815Z,17.99
2016-09-18T03:57:02.452Z,17.89
2016-09-18T03:58:02.397Z,17.84
2016-09-18T03:59:02.662Z,17.91
2016-09-18T04:00:02.529Z,18.04
2016-09-18T04:01:02.257Z,18.03
2016-09-18T04:02:02.221Z,17.89
2016-09-18T04:03:02.364Z,18
2016-09-18T04:04:03.034Z,17.99
2016-09-18T04:05:02.374Z,17.91
2016-09-18T04:06:02.338Z,17.97
2016-09-18T04:07:01.985Z,17.94
2016-09-18T04:08:02.245Z,17.91
2016-09-18T04:09:02.184Z,18.03
2016-09-18T04:10:01.842Z,17.99
2016-09-18T04:11:02.297Z,18
2016-09-18T04:12:02.046Z,17.99
2016-09-18T04:13:01.595Z,18.02
2016-09-18T04:14:01.969Z,17.95
2016-09-18T04:15:01.931Z,17.95
2016-09-18T04:16:01.572Z,17.92
2016-09-18T04:17:02.030Z,17.94
2016-09-18T04:18:01.773Z,17.81
2016-09-18T04:19:01.723Z,17.95
2016-09-18T04:20:01.577Z,17.95
2016-09-18T04:21:01.529Z,17.94
2016-09-18T04:22:00.975Z,17.92
2016-09-18T04:23:01.479Z,17.89
2016-09-18T04:24:01.677Z,17.99
2016-09-18T04:25:01.443Z,17.82
2016-09-18T04:26:01.402Z,17.87
2016-09-18T04:27:01.360Z,17.95
2016-09-18T04:28:01.499Z,17.81
2016-09-18T04:29:01.724Z,17.87
2016-09-18T04:30:00.899Z,17.82
2016-09-18T04:31:01.060Z,17.82
2016-09-18T04:32:01.121Z,17.78
2016-09-18T04:33:01.295Z,17.81
2016-09-18T04:34:00.710Z,17.76
2016-09-18T04:35:01.175Z,17.66
2016-09-18T04:36:00.947Z,17.59
2016-09-18T04:37:00.574Z,17.62
2016-09-18T04:38:00.828Z,17.62
2016-09-18T04:39:00.679Z,17.62
2016-09-18T04:40:00.418Z,17.55
2016-09-18T04:41:00.077Z,17.55
2016-09-18T04:42:00.655Z,17.57
2016-09-18T04:43:00.591Z,17.62
2016-09-18T04:44:00.254Z,17.53
2016-09-18T04:45:00.506Z,17.5
2016-09-18T04:46:00.546Z,17.5
2016-09-18T04:47:02.022Z,17.53
2016-09-18T04:48:02.788Z,17.46
2016-09-18T04:49:00.011Z,17.43
2016-09-18T04:50:00.308Z,17.5
2016-09-18T04:51:00.236Z,17.44
2016-09-18T04:52:00.369Z,17.48
2016-09-18T04:53:00.138Z,17.5
2016-09-18T04:54:00.683Z,17.44
2016-09-18T04:55:00.022Z,17.38
2016-09-18T04:56:00.082Z,17.47
2016-09-18T04:56:59.658Z,17.5
2016-09-18T04:57:59.887Z,17.48
2016-09-18T04:59:00.025Z,17.55
2016-09-18T04:59:59.500Z,17.53
2016-09-18T05:00:59.952Z,17.66
2016-09-18T05:01:59.408Z,17.63
2016-09-18T05:02:59.377Z,17.63
2016-09-18T05:03:59.593Z,17.51
2016-09-18T05:04:59.356Z,17.57
2016-09-18T05:05:59.734Z,17.54
2016-09-18T05:06:59.720Z,17.47
2016-09-18T05:07:59.106Z,17.47
2016-09-18T05:08:59.396Z,17.46
2016-09-18T05:09:59.517Z,17.47
2016-09-18T05:10:59.286Z,17.43
2016-09-18T05:11:59.642Z,17.41
2016-09-18T05:12:59.272Z,17.29
2016-09-18T05:13:59.124Z,17.5
2016-09-18T05:14:58.996Z,17.4
2016-09-18T05:16:01.940Z,17.5
2016-09-18T05:16:59.188Z,17.62
2016-09-18T05:17:58.947Z,17.57
2016-09-18T05:18:59.313Z,17.57
2016-09-18T05:19:58.878Z,17.54
2016-09-18T05:20:59.055Z,17.53
2016-09-18T05:21:58.756Z,17.38
2016-09-18T05:22:58.380Z,17.23
2016-09-18T05:24:02.167Z,17.08
2016-09-18T05:24:58.612Z,17.11
2016-09-18T05:25:58.755Z,17.13
2016-09-18T05:26:58.921Z,17.11
2016-09-18T05:27:58.456Z,17.25
2016-09-18T05:28:58.426Z,17.15
2016-09-18T05:29:58.059Z,17.14
2016-09-18T05:30:58.325Z,17.08
2016-09-18T05:31:57.961Z,16.98
2016-09-18T05:32:57.913Z,16.99
2016-09-18T05:33:58.081Z,16.99
2016-09-18T05:34:58.128Z,17.15
2016-09-18T05:35:58.100Z,17.29
2016-09-18T05:36:58.057Z,17.35
2016-09-18T05:37:57.685Z,17.33
2016-09-18T05:38:57.337Z,17.26
2016-09-18T05:39:59.187Z,17.32
2016-09-18T05:40:58.046Z,17.43
2016-09-18T05:41:58.011Z,17.41
2016-09-18T05:42:57.440Z,17.35
2016-09-18T05:43:58.122Z,17.29
2016-09-18T05:44:57.910Z,17.32
2016-09-18T05:45:57.830Z,17.25
2016-09-18T05:46:57.445Z,17.22
2016-09-18T05:47:57.516Z,17.28
2016-09-18T05:48:57.674Z,17.35
2016-09-18T05:49:57.845Z,17.36
2016-09-18T05:50:57.617Z,17.43
2016-09-18T05:51:57.334Z,17.46
2016-09-18T05:52:57.273Z,17.44
2016-09-18T05:53:56.925Z,17.4
2016-09-18T05:54:57.197Z,17.46
2016-09-18T05:55:57.137Z,17.44
2016-09-18T05:56:57.104Z,17.5
2016-09-18T05:57:56.781Z,17.54
2016-09-18T05:58:56.689Z,17.5
2016-09-18T05:59:56.955Z,17.47
2016-09-18T06:00:56.416Z,17.47
2016-09-18T06:01:57.063Z,17.46
2016-09-18T06:02:56.807Z,17.48
2016-09-18T06:03:57.348Z,17.46
2016-09-18T06:04:56.729Z,17.5
2016-09-18T06:05:56.899Z,17.46
2016-09-18T06:06:56.618Z,17.46
2016-09-18T06:07:56.262Z,17.5
2016-09-18T06:08:56.523Z,17.47
2016-09-18T06:09:56.484Z,17.51
2016-09-18T06:10:56.414Z,17.62
2016-09-18T06:11:56.368Z,17.63
2016-09-18T06:12:56.740Z,17.69
2016-09-18T06:13:56.189Z,17.7
2016-09-18T06:14:56.239Z,17.64
2016-09-18T06:15:56.079Z,17.71
2016-09-18T06:16:55.521Z,17.7
2016-09-18T06:17:56.105Z,17.59
2016-09-18T06:18:56.255Z,17.62
2016-09-18T06:19:55.759Z,17.54
2016-09-18T06:20:55.952Z,17.55
2016-09-18T06:21:56.009Z,17.59
2016-09-18T06:22:55.555Z,17.7
2016-09-18T06:23:56.030Z,17.57
2016-09-18T06:24:55.685Z,17.57
2016-09-18T06:25:55.728Z,17.59
2016-09-18T06:26:55.658Z,17.53
2016-09-18T06:27:55.633Z,17.5
2016-09-18T06:28:55.573Z,17.55
2016-09-18T06:29:55.223Z,17.62
2016-09-18T06:30:55.491Z,17.55
2016-09-18T06:31:55.433Z,17.67
2016-09-18T06:32:55.099Z,17.82
2016-09-18T06:33:55.031Z,17.91
2016-09-18T06:34:54.987Z,17.88
2016-09-18T06:35:54.931Z,17.87
2016-09-18T06:36:55.417Z,17.87
2016-09-18T06:37:55.201Z,17.94
2016-09-18T06:38:55.321Z,17.97
2016-09-18T06:39:55.063Z,17.97
2016-09-18T06:40:54.998Z,18
2016-09-18T06:41:54.966Z,18
2016-09-18T06:42:55.114Z,17.84
2016-09-18T06:43:54.868Z,17.82
2016-09-18T06:44:54.826Z,17.87
2016-09-18T06:45:54.773Z,17.88
2016-09-18T06:46:54.935Z,17.84
2016-09-18T06:47:54.072Z,17.89
2016-09-18T06:48:54.641Z,17.85
2016-09-18T06:49:54.596Z,17.97
2016-09-18T06:50:54.609Z,18.04
2016-09-18T06:51:54.498Z,18.02
2016-09-18T06:52:54.462Z,17.99
2016-09-18T06:53:54.096Z,17.94
2016-09-18T06:54:54.364Z,17.91
2016-09-18T06:55:54.297Z,17.99
2016-09-18T06:56:54.286Z,17.85
2016-09-18T06:57:53.902Z,17.84
2016-09-18T06:58:53.861Z,17.89
2016-09-18T06:59:53.807Z,17.92
2016-09-18T07:00:53.763Z,17.94
2016-09-18T07:01:53.714Z,17.92
2016-09-18T07:02:53.684Z,17.84
2016-09-18T07:03:54.159Z,17.88
2016-09-18T07:04:53.884Z,17.88
2016-09-18T07:05:54.251Z,17.82
2016-09-18T07:06:53.801Z,17.87
2016-09-18T07:07:53.448Z,17.84
2016-09-18T07:08:53.386Z,17.87
2016-09-18T07:09:53.619Z,17.89
2016-09-18T07:10:53.306Z,17.88
2016-09-18T07:11:53.346Z,17.94
2016-09-18T07:12:53.506Z,17.97
2016-09-18T07:13:53.762Z,18.03
2016-09-18T07:14:55.916Z,17.99
2016-09-18T07:16:08.003Z,18.02
2016-09-18T07:16:53.009Z,18.04
2016-09-18T07:17:53.321Z,18
2016-09-18T07:18:52.952Z,18.02
2016-09-18T07:19:53.189Z,17.94
2016-09-18T07:20:53.131Z,17.97
2016-09-18T07:21:53.108Z,18.02
2016-09-18T07:22:53.259Z,17.92
2016-09-18T07:23:52.994Z,17.85
2016-09-18T07:24:52.948Z,17.87
2016-09-18T07:25:53.314Z,17.79
2016-09-18T07:26:52.795Z,17.82
2016-09-18T07:27:52.810Z,17.94
2016-09-18T07:28:52.750Z,17.99
2016-09-18T07:29:52.916Z,17.95
2016-09-18T07:30:52.743Z,17.97
2016-09-18T07:31:52.673Z,18.03
2016-09-18T07:32:52.282Z,17.95
2016-09-18T07:33:52.723Z,17.97
2016-09-18T07:34:52.477Z,17.81
2016-09-18T07:35:52.429Z,17.88
2016-09-18T07:36:52.420Z,17.85
2016-09-18T07:37:52.380Z,17.84
2016-09-18T07:38:51.996Z,17.85
2016-09-18T07:39:51.936Z,17.73
2016-09-18T07:40:52.197Z,17.85
2016-09-18T07:41:52.158Z,17.79
2016-09-18T07:42:51.779Z,17.88
2016-09-18T07:43:54.692Z,17.87
2016-09-18T07:44:52.211Z,17.82
2016-09-18T07:45:51.961Z,17.78
2016-09-18T07:46:51.617Z,17.7
2016-09-18T07:47:51.559Z,17.7
2016-09-18T07:48:51.857Z,17.84
2016-09-18T07:49:51.778Z,17.84
2016-09-18T07:50:51.753Z,17.73
2016-09-18T07:51:51.066Z,17.78
2016-09-18T07:52:51.828Z,17.79
2016-09-18T07:53:51.590Z,17.71
2016-09-18T07:54:51.525Z,17.76
2016-09-18T07:55:51.489Z,17.81
2016-09-18T07:56:51.337Z,17.64
2016-09-18T07:57:51.395Z,17.69
2016-09-18T07:58:50.959Z,17.69
2016-09-18T07:59:51.292Z,17.81
2016-09-18T08:00:51.251Z,17.76
2016-09-18T08:01:51.404Z,17.78
2016-09-18T08:02:50.860Z,17.85
2016-09-18T08:03:51.313Z,17.94
2016-09-18T08:04:51.251Z,17.89
2016-09-18T08:05:51.236Z,17.92
2016-09-18T08:06:51.223Z,18.03
2016-09-18T08:07:50.925Z,17.91
2016-09-18T08:08:50.637Z,17.78
2016-09-18T08:09:50.824Z,17.74
2016-09-18T08:10:50.984Z,17.73
2016-09-18T08:11:50.735Z,17.71
2016-09-18T08:12:50.579Z,17.71
2016-09-18T08:13:50.639Z,17.69
2016-09-18T08:14:50.612Z,17.7
2016-09-18T08:15:50.542Z,17.71
2016-09-18T08:16:50.188Z,17.7
2016-09-18T08:17:50.446Z,17.67
2016-09-18T08:18:50.196Z,17.55
2016-09-18T08:19:50.042Z,17.64
2016-09-18T08:20:50.293Z,17.67
2016-09-18T08:21:49.962Z,17.81
2016-09-18T08:22:50.303Z,17.87
2016-09-18T08:23:50.184Z,17.87
2016-09-18T08:24:50.139Z,17.88
2016-09-18T08:25:50.071Z,17.97
2016-09-18T08:26:49.718Z,17.97
2016-09-18T08:27:49.373Z,18.1
2016-09-18T08:28:49.935Z,18.21
2016-09-18T08:29:50.084Z,18.24
2016-09-18T08:30:49.832Z,18.21
2016-09-18T08:31:49.810Z,18.21
2016-09-18T08:32:49.764Z,18.18
2016-09-18T08:33:49.718Z,18.15
2016-09-18T08:34:49.648Z,18.07
2016-09-18T08:35:49.653Z,18.03
2016-09-18T08:36:49.244Z,17.95
2016-09-18T08:37:49.515Z,17.94
2016-09-18T08:38:49.680Z,17.88
2016-09-18T08:39:49.432Z,17.89
2016-09-18T08:40:49.370Z,17.84
2016-09-18T08:41:49.367Z,17.85
2016-09-18T08:42:49.046Z,17.82
2016-09-18T08:43:49.233Z,17.84
2016-09-18T08:44:49.605Z,17.81
2016-09-18T08:45:51.860Z,17.87
2016-09-18T08:46:49.103Z,17.88
2016-09-18T08:47:48.734Z,17.89
2016-09-18T08:48:49.014Z,17.95
2016-09-18T08:49:48.960Z,17.97
2016-09-18T08:50:48.912Z,18.12
2016-09-18T08:51:48.560Z,18.13
2016-09-18T08:52:48.493Z,18.15
2016-09-18T08:53:48.776Z,18.18
2016-09-18T08:54:51.463Z,18.21
2016-09-18T08:55:49.742Z,18.18
2016-09-18T08:56:48.849Z,18.24
2016-09-18T08:57:48.468Z,18.22
2016-09-18T08:58:48.551Z,18.15
2016-09-18T08:59:48.381Z,18.13
2016-09-18T09:00:48.429Z,18.22
2016-09-18T09:01:48.380Z,18.27
2016-09-18T09:02:48.346Z,18.34
2016-09-18T09:03:48.285Z,18.46
2016-09-18T09:04:48.250Z,18.43
2016-09-18T09:05:48.195Z,18.57
2016-09-18T09:06:48.354Z,18.7
2016-09-18T09:07:47.802Z,18.61
2016-09-18T09:08:48.069Z,18.57
2016-09-18T09:09:48.217Z,18.54
2016-09-18T09:10:47.959Z,18.47
2016-09-18T09:11:47.928Z,18.43
2016-09-18T09:12:47.876Z,18.4
2016-09-18T09:13:47.819Z,18.37
2016-09-18T09:14:47.670Z,18.34
2016-09-18T09:15:47.742Z,18.33
2016-09-18T09:16:47.682Z,18.36
2016-09-18T09:17:47.881Z,18.31
2016-09-18T09:18:47.499Z,18.27
2016-09-18T09:19:47.761Z,18.27
2016-09-18T09:20:47.558Z,18.28
2016-09-18T09:21:47.356Z,18.33
2016-09-18T09:22:47.397Z,18.39
2016-09-18T09:23:47.253Z,18.4
2016-09-18T09:24:47.514Z,18.31
2016-09-18T09:25:46.966Z,18.25
2016-09-18T09:26:46.929Z,18.29
2016-09-18T09:27:47.180Z,18.33
2016-09-18T09:28:47.140Z,18.29
2016-09-18T09:29:47.065Z,18.34
2016-09-18T09:30:47.027Z,18.39
2016-09-18T09:31:47.055Z,18.4
2016-09-18T09:32:47.131Z,18.4
2016-09-18T09:33:46.786Z,18.37
2016-09-18T09:34:46.743Z,18.47
2016-09-18T09:35:47.018Z,18.42
2016-09-18T09:36:46.445Z,18.43
2016-09-18T09:37:46.716Z,18.49
2016-09-18T09:38:46.651Z,18.5
2016-09-18T09:39:46.796Z,18.36
2016-09-18T09:40:46.254Z,18.34
2016-09-18T09:41:46.527Z,18.39
2016-09-18T09:42:46.463Z,18.4
2016-09-18T09:43:45.830Z,18.39
2016-09-18T09:44:46.375Z,18.36
2016-09-18T09:45:46.022Z,18.39
2016-09-18T09:46:46.273Z,18.37
2016-09-18T09:47:46.255Z,18.36
2016-09-18T09:48:46.208Z,18.43
2016-09-18T09:49:45.840Z,18.36
2016-09-18T09:50:46.101Z,18.34
2016-09-18T09:51:46.060Z,18.36
2016-09-18T09:52:45.997Z,18.39
2016-09-18T09:53:45.675Z,18.49
2016-09-18T09:54:45.912Z,18.44
2016-09-18T09:55:45.862Z,18.54
2016-09-18T09:56:45.519Z,18.62
2016-09-18T09:57:45.358Z,18.54
2016-09-18T09:58:45.924Z,18.52
2016-09-18T09:59:45.683Z,18.65
2016-09-18T10:00:45.635Z,18.49
2016-09-18T10:01:45.272Z,18.52
2016-09-18T10:02:45.532Z,18.52
2016-09-18T10:03:45.190Z,18.54
2016-09-18T10:04:45.442Z,18.52
2016-09-18T10:05:45.402Z,18.57
2016-09-18T10:06:45.440Z,18.58
2016-09-18T10:07:45.349Z,18.5
2016-09-18T10:08:44.946Z,18.44
2016-09-18T10:09:44.914Z,18.44
2016-09-18T10:10:45.179Z,18.49
2016-09-18T10:11:44.853Z,18.47
2016-09-18T10:12:45.124Z,18.57
2016-09-18T10:13:44.812Z,18.57
2016-09-18T10:14:44.990Z,18.58
2016-09-18T10:15:44.924Z,18.55
2016-09-18T10:16:44.578Z,18.43
2016-09-18T10:17:44.846Z,18.5
2016-09-18T10:18:45.216Z,18.44
2016-09-18T10:19:44.955Z,18.49
2016-09-18T10:20:44.403Z,18.47
2016-09-18T10:21:44.047Z,18.55
2016-09-18T10:22:44.853Z,18.62
2016-09-18T10:23:44.570Z,18.64
2016-09-18T10:24:44.511Z,18.72
2016-09-18T10:25:44.488Z,18.72
2016-09-18T10:26:44.408Z,18.68
2016-09-18T10:27:44.385Z,18.64
2016-09-18T10:28:44.352Z,18.68
2016-09-18T10:29:44.300Z,18.65
2016-09-18T10:30:44.224Z,18.58
2016-09-18T10:31:44.414Z,18.55
2016-09-18T10:32:44.565Z,18.49
2016-09-18T10:33:43.835Z,18.46
2016-09-18T10:34:43.741Z,18.49
2016-09-18T10:35:43.685Z,18.42
2016-09-18T10:36:43.966Z,18.62
2016-09-18T10:37:44.164Z,18.65
2016-09-18T10:38:43.572Z,18.74
2016-09-18T10:39:43.838Z,18.7
2016-09-18T10:40:43.473Z,18.73
2016-09-18T10:41:43.422Z,18.72
2016-09-18T10:42:43.378Z,18.65
2016-09-18T10:43:43.663Z,18.62
2016-09-18T10:44:43.592Z,18.59
2016-09-18T10:45:43.434Z,18.64
2016-09-18T10:46:43.511Z,18.64
2016-09-18T10:47:43.689Z,18.61
2016-09-18T10:48:43.399Z,18.68
2016-09-18T10:49:43.393Z,18.65
2016-09-18T10:50:43.381Z,18.64
2016-09-18T10:51:43.489Z,18.67
2016-09-18T10:52:43.240Z,18.65
2016-09-18T10:53:42.852Z,18.68
2016-09-18T10:54:42.808Z,18.65
2016-09-18T10:55:43.482Z,18.57
2016-09-18T10:56:43.023Z,18.65
2016-09-18T10:57:42.668Z,18.61
2016-09-18T10:58:42.624Z,18.59
2016-09-18T10:59:42.899Z,18.67
2016-09-18T11:00:42.549Z,18.64
2016-09-18T11:01:42.698Z,18.61
2016-09-18T11:02:42.765Z,18.65
2016-09-18T11:03:42.604Z,18.76
2016-09-18T11:04:42.243Z,18.74
2016-09-18T11:05:42.030Z,18.77
2016-09-18T11:06:42.464Z,18.83
2016-09-18T11:07:42.225Z,18.9
2016-09-18T11:08:42.470Z,18.77
2016-09-18T11:09:42.421Z,18.9
2016-09-18T11:10:42.376Z,18.97
2016-09-18T11:11:42.349Z,18.97
2016-09-18T11:12:42.475Z,18.99
2016-09-18T11:13:42.445Z,18.95
2016-09-18T11:14:42.201Z,18.99
2016-09-18T11:15:42.349Z,19.05
2016-09-18T11:16:41.792Z,18.98
2016-09-18T11:17:42.262Z,18.99
2016-09-18T11:18:41.690Z,18.94
2016-09-18T11:19:42.164Z,18.91
2016-09-18T11:20:42.127Z,18.84
2016-09-18T11:21:42.063Z,18.86
2016-09-18T11:22:42.022Z,18.92
2016-09-18T11:23:41.774Z,18.94
2016-09-18T11:24:41.954Z,18.74
2016-09-18T11:25:41.742Z,18.95
2016-09-18T11:26:41.931Z,18.92
2016-09-18T11:27:41.279Z,18.92
2016-09-18T11:28:41.328Z,19.05
2016-09-18T11:29:41.974Z,19.1
2016-09-18T11:30:41.543Z,19.13
2016-09-18T11:31:41.418Z,19.14
2016-09-18T11:32:41.458Z,19.15
2016-09-18T11:33:41.310Z,19.15
2016-09-18T11:34:41.283Z,19.14
2016-09-18T11:35:41.237Z,19.14
2016-09-18T11:36:41.402Z,19.29
2016-09-18T11:37:41.136Z,19.25
2016-09-18T11:38:41.508Z,19.33
2016-09-18T11:39:41.046Z,19.28
2016-09-18T11:40:40.986Z,19.28
2016-09-18T11:41:40.956Z,19.29
2016-09-18T11:42:40.885Z,19.24
2016-09-18T11:43:40.863Z,19.23
2016-09-18T11:44:41.325Z,19.2
2016-09-18T11:45:40.651Z,19.23
2016-09-18T11:46:40.599Z,19.25
2016-09-18T11:47:41.088Z,19.36
2016-09-18T11:48:40.516Z,19.38
2016-09-18T11:49:40.795Z,19.38
2016-09-18T11:50:40.543Z,19.35
2016-09-18T11:51:40.486Z,19.35
2016-09-18T11:52:40.439Z,19.35
2016-09-18T11:53:40.080Z,19.33
2016-09-18T11:54:40.271Z,19.32
2016-09-18T11:55:40.298Z,19.47
2016-09-18T11:56:39.947Z,19.46
2016-09-18T11:57:40.827Z,19.4
2016-09-18T11:58:39.856Z,19.47
2016-09-18T11:59:40.017Z,19.47
2016-09-18T12:00:40.284Z,19.48
2016-09-18T12:01:40.420Z,19.6
2016-09-18T12:02:40.060Z,19.63
2016-09-18T12:03:39.942Z,19.65
2016-09-18T12:04:39.948Z,19.58
2016-09-18T12:05:39.735Z,19.42
2016-09-18T12:06:39.790Z,19.48
2016-09-18T12:07:39.955Z,19.46
2016-09-18T12:08:39.698Z,19.43
2016-09-18T12:09:39.366Z,19.42
2016-09-18T12:10:39.510Z,19.42
2016-09-18T12:11:39.261Z,19.47
2016-09-18T12:12:39.541Z,19.55
2016-09-18T12:13:39.680Z,19.6
2016-09-18T12:14:39.429Z,19.7
2016-09-18T12:15:39.394Z,19.75
2016-09-18T12:16:39.029Z,19.75
2016-09-18T12:17:39.025Z,19.7
2016-09-18T12:18:38.935Z,19.76
2016-09-18T12:19:38.891Z,19.66
2016-09-18T12:20:39.380Z,19.65
2016-09-18T12:21:39.206Z,19.6
2016-09-18T12:22:39.120Z,19.6
2016-09-18T12:23:38.716Z,19.72
2016-09-18T12:24:39.193Z,19.78
2016-09-18T12:25:38.917Z,19.94
2016-09-18T12:26:38.902Z,19.95
2016-09-18T12:27:38.834Z,20.15
2016-09-18T12:28:38.783Z,20.24
2016-09-18T12:29:38.441Z,20.34
2016-09-18T12:30:38.710Z,20.38
2016-09-18T12:31:38.561Z,20.51
2016-09-18T12:32:38.320Z,20.46
2016-09-18T12:33:38.566Z,20.34
2016-09-18T12:34:38.555Z,20.28
2016-09-18T12:35:39.280Z,20.27
2016-09-18T12:36:38.421Z,20.25
2016-09-18T12:37:38.073Z,20.18
2016-09-18T12:38:38.332Z,20.24
2016-09-18T12:39:38.281Z,20.34
2016-09-18T12:40:38.292Z,20.34
2016-09-18T12:41:38.411Z,20.34
2016-09-18T12:42:38.429Z,20.24
2016-09-18T12:43:38.116Z,20.24
2016-09-18T12:44:38.166Z,20.18
2016-09-18T12:45:38.013Z,20.24
2016-09-18T12:46:37.971Z,20.28
2016-09-18T12:47:38.127Z,20.33
2016-09-18T12:48:37.887Z,20.42
2016-09-18T12:49:37.737Z,20.38
2016-09-18T12:50:37.706Z,20.47
2016-09-18T12:51:37.633Z,20.35
2016-09-18T12:52:37.706Z,20.28
2016-09-18T12:53:37.655Z,20.27
2016-09-18T12:54:37.654Z,20.18